Time;durP1;ratioP1;P1;durP2;ratioP2;P2;SDS_P1;SDS_P2;PMS_P1;PMS_P2;Temp;Humidity;BMP_temperature;BMP_pressure;BME280_temperature;BME280_humidity;BME280_pressure;Samples;Min_cycle;Max_cycle;Signal;HPM_P1;HPM_P2
2023/09/29 00:01:34;;;;;;;13.07;3.33;;;18.90;99.90;;;;;;5053697;28;20484;-49
2023/09/29 00:04:01;;;;;;;13.07;2.90;;;18.90;99.90;;;;;;5054264;28;20037;-52
2023/09/29 00:06:28;;;;;;;11.65;3.10;;;18.90;99.90;;;;;;5054006;28;20392;-50
2023/09/29 00:08:55;;;;;;;14.32;3.42;;;19.00;99.90;;;;;;5053170;28;20465;-52
2023/09/29 00:11:22;;;;;;;13.27;2.90;;;18.90;99.90;;;;;;5054079;28;20048;-55
2023/09/29 00:13:49;;;;;;;12.55;3.30;;;19.00;99.90;;;;;;5054461;28;20087;-52
2023/09/29 00:16:16;;;;;;;12.55;3.13;;;18.90;99.90;;;;;;5052566;28;20060;-53
2023/09/29 00:18:43;;;;;;;8.70;2.90;;;18.90;99.90;;;;;;5053625;28;20095;-49
2023/09/29 00:21:11;;;;;;;13.73;3.30;;;18.80;99.90;;;;;;5053958;28;20041;-52
2023/09/29 00:23:37;;;;;;;14.45;3.35;;;18.90;99.90;;;;;;5054130;28;20048;-52
2023/09/29 00:26:05;;;;;;;11.43;3.15;;;18.80;99.90;;;;;;5052575;28;20056;-54
2023/09/29 00:28:33;;;;;;;8.93;2.80;;;18.80;99.90;;;;;;5052261;28;20429;-54
2023/09/29 00:30:59;;;;;;;12.23;3.05;;;18.90;99.90;;;;;;5053285;28;20037;-54
2023/09/29 00:33:26;;;;;;;9.57;3.35;;;18.90;99.90;;;;;;5053665;28;20124;-55
2023/09/29 00:35:53;;;;;;;11.85;3.10;;;18.90;99.90;;;;;;5052077;28;20045;-52
2023/09/29 00:38:20;;;;;;;12.73;3.42;;;18.90;99.90;;;;;;5052301;28;20076;-50
2023/09/29 00:40:47;;;;;;;11.10;3.20;;;18.90;99.90;;;;;;5053916;28;20065;-55
2023/09/29 00:43:15;;;;;;;12.27;3.03;;;18.90;99.90;;;;;;5053387;28;20057;-52
2023/09/29 00:45:42;;;;;;;9.52;3.05;;;18.80;99.90;;;;;;5053249;28;20044;-54
2023/09/29 00:48:10;;;;;;;13.35;3.42;;;18.80;99.90;;;;;;5051737;28;20152;-49
2023/09/29 00:50:37;;;;;;;10.70;3.30;;;18.80;99.90;;;;;;5053405;28;20056;-52
2023/09/29 00:53:11;;;;;;;10.95;3.17;;;18.70;99.90;;;;;;5053293;28;20064;-50
2023/09/29 00:55:41;;;;;;;13.10;3.65;;;18.60;99.90;;;;;;5053134;28;20546;-52
2023/09/29 00:58:08;;;;;;;10.90;2.97;;;18.60;99.90;;;;;;5053578;28;20389;-51
2023/09/29 01:00:40;;;;;;;13.07;3.42;;;18.60;99.90;;;;;;5053733;28;20456;-52
2023/09/29 01:03:09;;;;;;;10.40;2.78;;;18.60;99.90;;;;;;5052271;28;20041;-53
2023/09/29 01:05:36;;;;;;;10.95;2.90;;;18.50;99.90;;;;;;5051984;28;20127;-52
2023/09/29 01:08:03;;;;;;;9.20;2.75;;;18.50;99.90;;;;;;5051612;28;20407;-49
2023/09/29 01:10:29;;;;;;;11.50;3.08;;;18.50;99.90;;;;;;5051662;28;20045;-52
2023/09/29 01:12:56;;;;;;;11.07;2.97;;;18.50;99.90;;;;;;5053166;28;20124;-53
2023/09/29 01:15:23;;;;;;;10.27;3.25;;;18.60;99.90;;;;;;5053388;28;20033;-54
2023/09/29 01:17:51;;;;;;;10.75;3.00;;;18.50;99.90;;;;;;5051448;28;20047;-55
2023/09/29 01:20:27;;;;;;;10.27;2.65;;;18.60;99.90;;;;;;5054032;28;20041;-53
2023/09/29 01:22:54;;;;;;;11.65;3.05;;;18.60;99.90;;;;;;5057513;28;20439;-54
2023/09/29 01:25:21;;;;;;;11.77;2.80;;;18.60;99.90;;;;;;5057137;28;20045;-52
2023/09/29 01:27:49;;;;;;;12.07;3.05;;;18.60;99.90;;;;;;5057214;28;20415;-55
2023/09/29 01:30:18;;;;;;;9.05;2.63;;;18.60;99.90;;;;;;5057115;28;20049;-52
2023/09/29 01:32:46;;;;;;;8.43;2.40;;;18.60;99.90;;;;;;5055628;28;20045;-53
2023/09/29 01:35:31;;;;;;;7.93;2.65;;;18.60;99.90;;;;;;5055682;28;20041;-52
2023/09/29 01:38:01;;;;;;;9.38;2.97;;;18.60;99.90;;;;;;5056171;28;20073;-53
2023/09/29 01:40:28;;;;;;;8.25;2.42;;;18.70;99.90;;;;;;5057055;28;20037;-53
2023/09/29 01:42:58;;;;;;;8.95;2.55;;;18.70;99.90;;;;;;5057006;28;20045;-52
2023/09/29 01:45:25;;;;;;;7.55;2.50;;;18.70;99.90;;;;;;5055114;28;20045;-50
2023/09/29 01:47:52;;;;;;;10.93;2.78;;;18.70;99.90;;;;;;5056791;28;20567;-52
2023/09/29 01:50:23;;;;;;;12.43;2.67;;;18.70;99.90;;;;;;5055574;28;20048;-53
2023/09/29 01:52:50;;;;;;;10.25;3.00;;;18.80;99.90;;;;;;5055636;28;20495;-48
2023/09/29 01:55:21;;;;;;;8.80;3.00;;;18.80;99.90;;;;;;5054817;28;20162;-52
2023/09/29 01:57:48;;;;;;;11.25;2.92;;;18.80;99.90;;;;;;5056477;28;20061;-49
2023/09/29 02:00:19;;;;;;;9.98;3.40;;;18.80;99.90;;;;;;5055007;28;20037;-49
2023/09/29 02:02:46;;;;;;;8.43;2.88;;;18.80;99.90;;;;;;5054873;28;20524;-52
2023/09/29 02:05:15;;;;;;;12.13;2.72;;;18.80;99.90;;;;;;5056324;28;20037;-50
2023/09/29 02:07:42;;;;;;;10.68;2.85;;;18.90;99.90;;;;;;5055058;28;20556;-51
2023/09/29 02:10:09;;;;;;;10.27;2.78;;;18.90;99.90;;;;;;5056169;28;20041;-51
2023/09/29 02:12:36;;;;;;;8.85;2.45;;;18.80;99.90;;;;;;5054943;28;20079;-52
2023/09/29 02:15:06;;;;;;;8.88;2.60;;;18.80;99.90;;;;;;5055130;28;20041;-46
2023/09/29 02:17:36;;;;;;;9.55;2.70;;;18.80;99.90;;;;;;5054867;28;20128;-51
2023/09/29 02:20:25;;;;;;;8.07;1.83;;;18.80;99.90;;;;;;5055909;28;20086;-51
2023/09/29 02:22:49;;;;;;;6.43;2.20;;;18.70;99.90;;;;;;5054964;28;20094;-48
2023/09/29 02:25:18;;;;;;;4.00;1.80;;;18.70;99.90;;;;;;5055813;28;20125;-50
2023/09/29 02:27:48;;;;;;;4.68;1.60;;;18.70;99.90;;;;;;5054623;28;20078;-52
2023/09/29 02:30:15;;;;;;;6.43;1.80;;;18.70;99.90;;;;;;5055789;28;20152;-54
2023/09/29 02:32:41;;;;;;;3.40;1.30;;;18.70;99.90;;;;;;5054568;28;20048;-54
2023/09/29 02:35:09;;;;;;;4.88;1.63;;;18.60;99.90;;;;;;5054566;28;20106;-51
2023/09/29 02:37:36;;;;;;;4.30;1.50;;;18.60;99.90;;;;;;5055880;28;20041;-54
2023/09/29 02:40:06;;;;;;;4.13;1.40;;;18.60;99.90;;;;;;5054560;28;20051;-51
2023/09/29 02:42:33;;;;;;;5.15;1.40;;;18.70;99.90;;;;;;5055916;28;20102;-52
2023/09/29 02:45:00;;;;;;;5.53;1.60;;;18.70;99.90;;;;;;5055974;28;20063;-50
2023/09/29 02:47:27;;;;;;;5.40;1.65;;;18.70;99.90;;;;;;5054355;28;20045;-54
2023/09/29 02:49:54;;;;;;;6.55;1.80;;;18.70;99.90;;;;;;5055840;28;20045;-52
2023/09/29 02:52:21;;;;;;;5.68;1.48;;;18.70;99.90;;;;;;5054493;28;20135;-55
2023/09/29 02:54:49;;;;;;;3.55;1.40;;;18.70;99.90;;;;;;5055691;28;20118;-51
2023/09/29 02:57:16;;;;;;;3.85;1.35;;;18.70;99.90;;;;;;5055255;28;20029;-53
2023/09/29 02:59:44;;;;;;;3.25;1.40;;;18.70;99.90;;;;;;5055239;28;20060;-52
2023/09/29 03:02:11;;;;;;;5.80;1.67;;;18.70;99.90;;;;;;5053973;28;20037;-49
2023/09/29 03:04:39;;;;;;;5.20;1.35;;;18.70;99.90;;;;;;5055439;28;20033;-49
2023/09/29 03:07:09;;;;;;;3.38;1.17;;;18.70;99.90;;;;;;5055198;28;20124;-51
2023/09/29 03:09:36;;;;;;;5.28;1.40;;;18.70;99.90;;;;;;5053797;28;20045;-49
2023/09/29 03:12:03;;;;;;;2.47;0.95;;;18.70;99.90;;;;;;5055393;28;20479;-52
2023/09/29 03:14:30;;;;;;;3.72;1.10;;;18.60;99.90;;;;;;5053727;28;20041;-54
2023/09/29 03:16:58;;;;;;;4.35;1.00;;;18.60;99.90;;;;;;5054914;28;20056;-50
2023/09/29 03:19:25;;;;;;;3.63;1.08;;;18.60;99.90;;;;;;5053817;28;20061;-51
2023/09/29 03:21:52;;;;;;;3.83;1.20;;;18.60;99.90;;;;;;5053366;28;20044;-52
2023/09/29 03:24:19;;;;;;;3.55;1.10;;;18.60;99.90;;;;;;5055181;28;20472;-54
2023/09/29 03:26:49;;;;;;;3.38;1.13;;;18.60;99.90;;;;;;5053729;28;20094;-54
2023/09/29 03:29:17;;;;;;;4.38;1.00;;;18.60;99.90;;;;;;5055318;28;20048;-53
2023/09/29 03:31:45;;;;;;;2.92;1.00;;;18.60;99.90;;;;;;5054896;28;20037;-53
2023/09/29 03:34:11;;;;;;;2.13;0.75;;;18.60;99.90;;;;;;5054791;28;20076;-51
2023/09/29 03:36:38;;;;;;;3.22;0.93;;;18.60;99.90;;;;;;5054539;28;20040;-51
2023/09/29 03:39:06;;;;;;;3.72;0.73;;;18.60;99.90;;;;;;5054758;28;20116;-50
2023/09/29 03:41:33;;;;;;;2.00;0.70;;;18.60;99.90;;;;;;5054633;28;20044;-49
2023/09/29 03:44:00;;;;;;;3.15;0.80;;;18.60;99.90;;;;;;5054307;28;20053;-52
2023/09/29 03:46:29;;;;;;;1.55;0.70;;;18.60;99.90;;;;;;5054143;28;20049;-50
2023/09/29 03:48:56;;;;;;;2.17;0.77;;;18.60;99.90;;;;;;5054640;28;20041;-48
2023/09/29 03:51:23;;;;;;;1.80;0.52;;;18.60;99.90;;;;;;5053020;28;20072;-53
2023/09/29 03:53:50;;;;;;;1.08;0.38;;;18.60;99.90;;;;;;5054344;28;20095;-53
2023/09/29 03:56:16;;;;;;;1.25;0.30;;;18.30;99.90;;;;;;5054645;28;20036;-48
2023/09/29 03:58:43;;;;;;;0.57;0.30;;;17.90;99.90;;;;;;5052041;28;20095;-52
2023/09/29 04:01:10;;;;;;;1.65;0.35;;;17.70;99.90;;;;;;5034333;28;20034;-54
2023/09/29 04:03:37;;;;;;;2.35;0.32;;;17.50;99.90;;;;;;5033432;28;20389;-53
2023/09/29 04:06:04;;;;;;;1.67;0.40;;;17.40;99.90;;;;;;5034011;28;20095;-54
2023/09/29 04:08:31;;;;;;;1.80;0.32;;;17.40;99.90;;;;;;5034246;28;20431;-53
2023/09/29 04:10:58;;;;;;;1.48;0.63;;;17.40;99.90;;;;;;5033905;28;20093;-49
2023/09/29 04:13:25;;;;;;;2.35;0.38;;;17.40;99.90;;;;;;5034044;28;20505;-52
2023/09/29 04:15:51;;;;;;;1.45;0.45;;;17.40;99.90;;;;;;5034294;28;20424;-49
2023/09/29 04:18:18;;;;;;;1.40;0.50;;;17.30;99.90;;;;;;5034131;28;20060;-52
2023/09/29 04:20:45;;;;;;;0.60;0.28;;;17.30;99.90;;;;;;5034138;28;20041;-50
2023/09/29 04:23:12;;;;;;;1.30;0.40;;;17.20;99.90;;;;;;5034097;28;20049;-52
2023/09/29 04:25:39;;;;;;;1.02;0.32;;;17.30;99.90;;;;;;5033764;28;20428;-47
2023/09/29 04:28:05;;;;;;;0.45;0.28;;;17.20;99.90;;;;;;5033971;28;20052;-50
2023/09/29 04:30:32;;;;;;;0.80;0.30;;;17.30;99.90;;;;;;5033994;28;20107;-52
2023/09/29 04:32:59;;;;;;;0.70;0.38;;;17.20;99.90;;;;;;5033563;28;20049;-49
2023/09/29 04:35:26;;;;;;;0.90;0.30;;;17.20;99.90;;;;;;5033592;28;20042;-48
2023/09/29 04:37:53;;;;;;;0.60;0.25;;;17.20;99.90;;;;;;5033828;28;20410;-53
2023/09/29 04:40:19;;;;;;;0.88;0.30;;;17.10;99.90;;;;;;5033437;28;20053;-54
2023/09/29 04:42:46;;;;;;;0.93;0.30;;;17.10;99.90;;;;;;5033671;28;20049;-48
2023/09/29 04:45:13;;;;;;;1.10;0.40;;;17.10;99.90;;;;;;5033439;28;20042;-50
2023/09/29 04:47:40;;;;;;;2.25;0.40;;;17.00;99.90;;;;;;5033430;28;20052;-49
2023/09/29 04:50:10;;;;;;;1.17;0.50;;;17.00;99.90;;;;;;5033329;28;20045;-51
2023/09/29 04:52:37;;;;;;;1.20;0.50;;;17.00;99.90;;;;;;5033400;28;20042;-50
2023/09/29 04:55:04;;;;;;;0.75;0.35;;;17.00;99.90;;;;;;5032880;28;20045;-52
2023/09/29 04:57:31;;;;;;;1.75;0.55;;;17.00;99.90;;;;;;5032922;28;20041;-52
2023/09/29 04:59:58;;;;;;;0.80;0.50;;;16.90;99.90;;;;;;5033486;28;20102;-50
2023/09/29 05:02:29;;;;;;;1.95;0.50;;;16.90;99.90;;;;;;5032009;28;20069;-51
2023/09/29 05:04:56;;;;;;;0.93;0.43;;;16.90;99.90;;;;;;5033326;28;20041;-51
2023/09/29 05:07:22;;;;;;;1.00;0.40;;;16.90;99.90;;;;;;5033230;28;20465;-49
2023/09/29 05:09:49;;;;;;;2.10;0.50;;;16.90;99.90;;;;;;5033132;28;20124;-54
2023/09/29 05:12:16;;;;;;;1.58;0.70;;;16.90;99.90;;;;;;5033310;28;20459;-53
2023/09/29 05:14:43;;;;;;;1.40;0.70;;;16.90;99.90;;;;;;5033286;28;20037;-51
2023/09/29 05:17:10;;;;;;;2.33;0.90;;;16.80;99.90;;;;;;5033064;28;20489;-52
2023/09/29 05:19:36;;;;;;;2.45;0.65;;;16.80;99.90;;;;;;5033523;28;20473;-51
2023/09/29 05:22:03;;;;;;;1.65;0.80;;;16.80;99.90;;;;;;5033514;28;20042;-52
2023/09/29 05:24:30;;;;;;;2.67;0.93;;;16.80;99.90;;;;;;5033065;28;20053;-54
2023/09/29 05:26:56;;;;;;;1.83;1.00;;;16.80;99.90;;;;;;5033078;28;20111;-53
2023/09/29 05:29:23;;;;;;;2.20;0.93;;;16.80;99.90;;;;;;5033079;28;20139;-50
2023/09/29 05:31:50;;;;;;;2.17;0.85;;;16.80;99.90;;;;;;5033134;28;20042;-52
2023/09/29 05:34:17;;;;;;;2.45;0.90;;;16.80;99.90;;;;;;5033300;28;20052;-55
2023/09/29 05:36:45;;;;;;;2.80;0.90;;;16.80;99.90;;;;;;5032848;28;20048;-52
2023/09/29 05:39:12;;;;;;;2.80;0.85;;;16.80;99.90;;;;;;5032976;28;20072;-53
2023/09/29 05:41:39;;;;;;;2.28;1.00;;;16.80;99.90;;;;;;5032961;28;20125;-50
2023/09/29 05:44:06;;;;;;;2.08;0.93;;;16.80;99.90;;;;;;5033086;28;20045;-49
2023/09/29 05:46:33;;;;;;;1.92;0.82;;;16.70;99.90;;;;;;5015120;28;20041;-53
2023/09/29 05:49:00;;;;;;;4.13;1.20;;;16.80;99.90;;;;;;5032572;28;20049;-53
2023/09/29 05:51:27;;;;;;;2.90;1.10;;;16.80;99.90;;;;;;5032372;28;20065;-51
2023/09/29 05:53:54;;;;;;;3.38;1.00;;;16.80;99.90;;;;;;5032967;28;20362;-50
2023/09/29 05:56:20;;;;;;;3.00;0.90;;;16.80;99.90;;;;;;5032615;28;20038;-52
2023/09/29 05:58:47;;;;;;;1.88;0.98;;;16.80;99.90;;;;;;5033120;28;20045;-53
2023/09/29 06:01:14;;;;;;;2.13;1.00;;;16.80;99.90;;;;;;5032828;28;20163;-51
2023/09/29 06:03:41;;;;;;;3.25;1.17;;;16.80;99.90;;;;;;5033294;28;20046;-50
2023/09/29 06:06:09;;;;;;;2.33;1.10;;;16.70;99.90;;;;;;5033848;28;20050;-51
2023/09/29 06:08:36;;;;;;;4.40;1.10;;;16.70;99.90;;;;;;5036862;28;20041;-53
2023/09/29 06:11:20;;;;;;;2.83;1.20;;;16.70;99.90;;;;;;5036419;28;20128;-53
2023/09/29 06:13:47;;;;;;;2.25;1.00;;;16.80;99.90;;;;;;5036525;28;20044;-52
2023/09/29 06:16:14;;;;;;;4.10;1.20;;;16.80;99.90;;;;;;5036185;28;20540;-51
2023/09/29 06:18:40;;;;;;;3.38;1.05;;;16.80;99.90;;;;;;5036266;28;20039;-51
2023/09/29 06:21:07;;;;;;;2.50;1.30;;;16.80;99.90;;;;;;5036679;28;20044;-55
2023/09/29 06:23:34;;;;;;;6.05;1.33;;;16.70;99.90;;;;;;5036359;28;20069;-51
2023/09/29 06:26:01;;;;;;;2.45;1.25;;;16.70;99.90;;;;;;5036067;28;20140;-53
2023/09/29 06:28:28;;;;;;;4.35;1.42;;;16.70;99.90;;;;;;5036073;28;20089;-47
2023/09/29 06:30:58;;;;;;;3.83;1.63;;;16.70;99.90;;;;;;5036021;28;20473;-49
2023/09/29 06:33:28;;;;;;;3.17;1.30;;;16.70;99.90;;;;;;5035749;28;20046;-53
2023/09/29 06:35:55;;;;;;;4.75;1.38;;;16.60;99.90;;;;;;5035623;28;20052;-53
2023/09/29 06:38:22;;;;;;;3.97;1.50;;;16.60;99.90;;;;;;5036037;28;20088;-49
2023/09/29 06:40:49;;;;;;;4.63;1.42;;;16.60;99.90;;;;;;5035690;28;20095;-49
2023/09/29 06:43:17;;;;;;;4.60;1.42;;;16.60;99.90;;;;;;5035399;28;20046;-53
2023/09/29 06:45:45;;;;;;;4.43;1.80;;;16.60;99.90;;;;;;5035346;28;20084;-51
2023/09/29 06:48:27;;;;;;;3.15;1.20;;;16.50;99.90;;;;;;5034598;28;20147;-53
2023/09/29 06:50:59;;;;;;;3.60;1.40;;;16.50;99.90;;;;;;5035481;28;20053;-50
2023/09/29 06:53:27;;;;;;;3.67;1.30;;;16.50;99.90;;;;;;5034148;28;20061;-50
2023/09/29 06:55:54;;;;;;;2.92;1.20;;;16.40;99.90;;;;;;5035602;28;20049;-52
2023/09/29 06:58:21;;;;;;;4.75;1.50;;;16.40;99.90;;;;;;5035621;28;20103;-52
2023/09/29 07:00:49;;;;;;;3.10;1.30;;;16.30;99.90;;;;;;5035546;28;20104;-53
2023/09/29 07:03:16;;;;;;;4.70;1.30;;;16.30;99.90;;;;;;5018088;28;20077;-53
2023/09/29 07:05:43;;;;;;;4.43;1.48;;;16.30;99.90;;;;;;5035307;28;20053;-50
2023/09/29 07:08:10;;;;;;;4.35;1.30;;;16.30;99.90;;;;;;5029999;28;20042;-51
2023/09/29 07:10:37;;;;;;;4.15;1.30;;;16.30;99.90;;;;;;5032640;28;20042;-52
2023/09/29 07:13:04;;;;;;;3.38;1.30;;;16.20;99.90;;;;;;5017365;28;20045;-53
2023/09/29 07:15:31;;;;;;;4.03;1.40;;;16.20;99.90;;;;;;5015774;28;20078;-56
2023/09/29 07:17:57;;;;;;;3.08;1.33;;;16.20;99.90;;;;;;5014694;28;20045;-54
2023/09/29 07:20:24;;;;;;;2.75;1.02;;;16.20;99.90;;;;;;5014252;28;20504;-53
2023/09/29 07:22:51;;;;;;;3.20;1.20;;;16.20;99.90;;;;;;5015507;28;20069;-56
2023/09/29 07:25:18;;;;;;;2.78;1.10;;;16.20;99.90;;;;;;5015887;28;20042;-51
2023/09/29 07:27:45;;;;;;;3.53;1.13;;;16.20;99.90;;;;;;5014762;28;20060;-55
2023/09/29 07:30:12;;;;;;;4.50;1.20;;;16.20;99.90;;;;;;5015050;28;20080;-53
2023/09/29 07:32:41;;;;;;;3.33;1.10;;;16.30;99.90;;;;;;5014413;28;20057;-54
2023/09/29 07:35:08;;;;;;;3.60;1.27;;;16.30;99.90;;;;;;5014850;28;20041;-51
2023/09/29 07:37:35;;;;;;;3.95;0.95;;;16.30;99.90;;;;;;5014883;28;20044;-54
2023/09/29 07:40:01;;;;;;;6.15;1.40;;;16.40;99.90;;;;;;5014669;28;20041;-51
2023/09/29 07:42:28;;;;;;;5.00;1.20;;;16.50;99.90;;;;;;5014976;28;20508;-50
2023/09/29 07:44:55;;;;;;;2.90;1.30;;;16.50;99.90;;;;;;5014902;28;20503;-53
2023/09/29 07:47:22;;;;;;;3.50;1.17;;;16.60;99.90;;;;;;5014745;28;20050;-54
2023/09/29 07:49:49;;;;;;;4.40;1.15;;;16.50;99.90;;;;;;5014945;28;20520;-52
2023/09/29 07:52:16;;;;;;;3.65;1.20;;;16.50;99.90;;;;;;5015006;28;20133;-52
2023/09/29 07:54:42;;;;;;;4.65;1.45;;;16.50;99.90;;;;;;5014504;28;20105;-52
2023/09/29 07:57:09;;;;;;;2.28;1.02;;;16.50;99.90;;;;;;5013156;28;20061;-54
2023/09/29 07:59:36;;;;;;;2.75;1.10;;;16.50;99.90;;;;;;5014820;28;20065;-51
2023/09/29 08:02:05;;;;;;;2.60;1.00;;;16.50;99.90;;;;;;5014659;28;20046;-53
2023/09/29 08:04:33;;;;;;;4.68;2.47;;;16.50;99.90;;;;;;5014849;28;20065;-51
2023/09/29 08:07:00;;;;;;;3.78;1.25;;;16.40;99.90;;;;;;5014818;28;20112;-52
2023/09/29 08:09:29;;;;;;;4.55;0.80;;;16.40;99.90;;;;;;5014746;28;20053;-55
2023/09/29 08:11:57;;;;;;;4.78;0.70;;;16.40;99.90;;;;;;5014375;28;20057;-53
2023/09/29 08:14:24;;;;;;;3.75;1.63;;;16.50;99.90;;;;;;5014851;28;20088;-52
2023/09/29 08:16:50;;;;;;;6.03;1.00;;;16.40;99.90;;;;;;5014777;28;20034;-57
2023/09/29 08:19:17;;;;;;;2.08;0.90;;;16.40;99.90;;;;;;5014657;28;20049;-55
2023/09/29 08:21:45;;;;;;;2.45;0.98;;;16.30;99.90;;;;;;5014448;28;20045;-54
2023/09/29 08:24:12;;;;;;;6.72;1.13;;;16.30;99.90;;;;;;5014665;28;20045;-54
2023/09/29 08:26:39;;;;;;;4.30;1.05;;;16.30;99.90;;;;;;5014547;28;20046;-54
2023/09/29 08:29:10;;;;;;;2.20;0.90;;;16.40;99.90;;;;;;5016715;28;20037;-56
2023/09/29 08:31:36;;;;;;;3.03;1.20;;;16.50;99.90;;;;;;5033092;28;20116;-54
2023/09/29 08:34:03;;;;;;;3.25;1.20;;;16.60;99.90;;;;;;5032558;28;20046;-55
2023/09/29 08:36:30;;;;;;;2.70;0.88;;;16.70;99.90;;;;;;5033258;28;20044;-55
2023/09/29 08:38:57;;;;;;;3.80;0.90;;;16.80;99.90;;;;;;5032425;28;20057;-56
2023/09/29 08:41:24;;;;;;;5.00;1.13;;;16.80;99.90;;;;;;5033412;28;20120;-51
2023/09/29 08:43:51;;;;;;;3.85;1.20;;;16.80;99.90;;;;;;5033308;28;20041;-56
2023/09/29 08:46:33;;;;;;;2.08;1.00;;;16.80;99.90;;;;;;5027905;28;20048;-49
2023/09/29 08:49:00;;;;;;;4.22;1.08;;;16.90;99.90;;;;;;5032833;28;20038;-52
2023/09/29 08:51:27;;;;;;;2.88;1.00;;;16.90;99.90;;;;;;5033605;28;20473;-50
2023/09/29 08:53:56;;;;;;;6.05;1.30;;;16.90;99.90;;;;;;5033537;28;20493;-49
2023/09/29 08:56:23;;;;;;;3.70;1.40;;;16.90;99.90;;;;;;5033548;28;20052;-55
2023/09/29 08:58:50;;;;;;;3.63;1.40;;;17.00;99.90;;;;;;5033867;28;20103;-52
2023/09/29 09:01:16;;;;;;;3.80;1.52;;;17.00;99.90;;;;;;5033200;28;20052;-51
2023/09/29 09:03:46;;;;;;;3.85;1.38;;;17.10;99.90;;;;;;5032012;28;20103;-51
2023/09/29 09:06:13;;;;;;;3.63;1.40;;;17.00;99.90;;;;;;5031876;28;20077;-53
2023/09/29 09:08:40;;;;;;;3.05;1.52;;;16.90;99.90;;;;;;5032387;28;20038;-56
2023/09/29 09:11:07;;;;;;;3.55;1.80;;;16.90;99.90;;;;;;5031911;28;20096;-52
2023/09/29 09:13:34;;;;;;;4.32;1.35;;;16.90;99.90;;;;;;5027717;28;20056;-53
2023/09/29 09:16:01;;;;;;;3.67;1.30;;;17.00;99.90;;;;;;5032301;28;20083;-52
2023/09/29 09:18:28;;;;;;;3.25;1.20;;;17.10;99.90;;;;;;5032310;28;20140;-54
2023/09/29 09:20:55;;;;;;;3.38;1.67;;;17.10;99.90;;;;;;5031364;28;20053;-53
2023/09/29 09:23:22;;;;;;;3.38;1.33;;;17.10;99.90;;;;;;5032574;28;20069;-50
2023/09/29 09:25:49;;;;;;;4.25;1.35;;;17.10;99.90;;;;;;5032410;28;20412;-55
2023/09/29 09:28:17;;;;;;;4.13;1.27;;;17.00;99.90;;;;;;5032097;28;20052;-51
2023/09/29 09:30:44;;;;;;;5.72;1.35;;;17.00;99.90;;;;;;5032136;28;20041;-56
2023/09/29 09:33:11;;;;;;;3.60;1.38;;;17.00;99.90;;;;;;5031446;28;20041;-50
2023/09/29 09:35:38;;;;;;;4.60;2.03;;;17.10;99.90;;;;;;5032135;28;20433;-55
2023/09/29 09:38:05;;;;;;;3.50;1.80;;;17.20;99.90;;;;;;5026026;28;20573;-51
2023/09/29 09:40:32;;;;;;;4.95;1.73;;;17.30;99.90;;;;;;5025579;28;20042;-54
2023/09/29 09:43:02;;;;;;;4.60;1.52;;;17.30;99.90;;;;;;5029616;28;20033;-55
2023/09/29 09:45:29;;;;;;;3.40;1.58;;;17.40;99.90;;;;;;5029894;28;20050;-50
2023/09/29 09:47:59;;;;;;;4.93;1.58;;;17.40;99.90;;;;;;5035886;28;20029;-50
2023/09/29 09:50:30;;;;;;;7.78;2.30;;;17.40;99.90;;;;;;5035580;28;20076;-52
2023/09/29 09:52:58;;;;;;;3.63;1.83;;;17.40;99.90;;;;;;5034228;28;20095;-51
2023/09/29 09:55:27;;;;;;;4.22;1.33;;;17.50;99.90;;;;;;5034620;28;20492;-54
2023/09/29 09:57:54;;;;;;;3.75;1.42;;;17.40;99.90;;;;;;5035782;28;20385;-53
2023/09/29 10:00:24;;;;;;;5.15;1.83;;;17.40;99.90;;;;;;5034533;28;20052;-55
2023/09/29 10:02:51;;;;;;;4.30;2.15;;;17.40;99.90;;;;;;5033600;28;20041;-54
2023/09/29 10:05:25;;;;;;;2.92;1.40;;;17.40;99.90;;;;;;5035925;28;20471;-49
2023/09/29 10:07:53;;;;;;;5.63;1.98;;;17.30;99.90;;;;;;5035661;28;20057;-54
2023/09/29 10:10:19;;;;;;;3.28;1.80;;;17.40;99.90;;;;;;5036023;28;20099;-54
2023/09/29 10:12:46;;;;;;;4.97;2.05;;;17.50;99.90;;;;;;5036327;28;20468;-51
2023/09/29 10:15:13;;;;;;;7.00;2.60;;;17.40;99.90;;;;;;5035102;28;20041;-52
2023/09/29 10:17:40;;;;;;;5.53;2.60;;;17.40;99.90;;;;;;5035881;28;20049;-52
2023/09/29 10:20:07;;;;;;;5.07;2.00;;;17.40;99.90;;;;;;5035632;28;20038;-52
2023/09/29 10:22:34;;;;;;;3.75;1.80;;;17.30;99.90;;;;;;5035668;28;20045;-52
2023/09/29 10:25:00;;;;;;;4.57;1.80;;;17.30;99.90;;;;;;5035338;28;20050;-56
2023/09/29 10:27:27;;;;;;;6.75;2.13;;;17.30;99.90;;;;;;5034353;28;20136;-53
2023/09/29 10:29:55;;;;;;;5.07;2.00;;;17.40;99.90;;;;;;5035652;28;20045;-51
2023/09/29 10:32:22;;;;;;;5.65;1.95;;;17.40;99.90;;;;;;5035521;28;20049;-53
2023/09/29 10:34:49;;;;;;;10.13;2.25;;;17.40;99.90;;;;;;5035214;28;20037;-50
2023/09/29 10:37:16;;;;;;;4.30;2.10;;;17.50;99.90;;;;;;5035317;28;20045;-53
2023/09/29 10:39:44;;;;;;;5.90;2.65;;;17.50;99.90;;;;;;5035393;28;20120;-47
2023/09/29 10:42:14;;;;;;;7.15;2.97;;;17.50;99.90;;;;;;5035345;28;20038;-54
2023/09/29 10:44:41;;;;;;;7.22;2.65;;;17.50;99.90;;;;;;5034995;28;20129;-48
2023/09/29 10:47:08;;;;;;;8.40;2.65;;;17.50;99.90;;;;;;5035319;28;20037;-50
2023/09/29 10:49:35;;;;;;;7.07;2.33;;;17.50;99.90;;;;;;5035334;28;20037;-49
2023/09/29 10:52:02;;;;;;;6.38;2.22;;;17.50;99.90;;;;;;5035032;28;20064;-50
2023/09/29 10:54:30;;;;;;;11.65;2.60;;;17.50;99.90;;;;;;5033947;28;20054;-48
2023/09/29 10:56:57;;;;;;;6.30;2.25;;;17.50;99.90;;;;;;5034944;28;20418;-48
2023/09/29 10:59:24;;;;;;;7.50;2.28;;;17.60;99.90;;;;;;5034981;28;20050;-49
2023/09/29 11:01:51;;;;;;;11.48;2.85;;;17.60;99.90;;;;;;5034834;28;20346;-51
2023/09/29 11:04:18;;;;;;;6.75;3.00;;;17.60;99.90;;;;;;5034717;28;20044;-53
2023/09/29 11:06:45;;;;;;;6.47;2.53;;;17.70;99.90;;;;;;5033691;28;20045;-52
2023/09/29 11:09:13;;;;;;;7.00;2.75;;;17.70;99.90;;;;;;5035292;28;20059;-52
2023/09/29 11:11:40;;;;;;;5.82;2.90;;;17.80;99.90;;;;;;5035268;28;20038;-50
2023/09/29 11:14:07;;;;;;;6.20;2.58;;;17.80;99.90;;;;;;5035234;28;20041;-51
2023/09/29 11:16:33;;;;;;;7.95;2.50;;;17.90;99.90;;;;;;5035063;28;20046;-55
2023/09/29 11:19:01;;;;;;;7.22;2.80;;;17.80;99.90;;;;;;5035175;28;20061;-49
2023/09/29 11:21:28;;;;;;;9.98;3.28;;;17.90;99.90;;;;;;5035056;28;20073;-54
2023/09/29 11:23:55;;;;;;;8.32;2.78;;;17.90;99.90;;;;;;5035257;28;20037;-50
2023/09/29 11:26:22;;;;;;;8.07;2.72;;;17.90;99.90;;;;;;5034824;28;20037;-54
2023/09/29 11:28:51;;;;;;;6.65;2.33;;;17.90;99.90;;;;;;5034310;28;20077;-50
2023/09/29 11:31:20;;;;;;;5.97;2.42;;;17.90;99.90;;;;;;5034298;28;20124;-49
2023/09/29 11:33:48;;;;;;;6.38;2.55;;;18.00;99.90;;;;;;5025598;28;20061;-52
2023/09/29 11:36:15;;;;;;;5.70;2.20;;;17.90;99.90;;;;;;5034493;28;20409;-54
2023/09/29 11:38:42;;;;;;;7.10;2.60;;;17.90;99.90;;;;;;5034950;28;20041;-55
2023/09/29 11:41:10;;;;;;;8.88;2.80;;;17.90;99.90;;;;;;5034028;28;20118;-56
2023/09/29 11:43:37;;;;;;;5.20;2.50;;;18.00;99.90;;;;;;5033393;28;20041;-52
2023/09/29 11:46:04;;;;;;;7.95;2.72;;;18.00;99.90;;;;;;5031953;28;20041;-50
2023/09/29 11:48:31;;;;;;;8.85;3.20;;;18.00;99.90;;;;;;5033288;28;20045;-50
2023/09/29 11:50:58;;;;;;;11.35;3.58;;;18.00;99.90;;;;;;5033160;28;20055;-51
2023/09/29 11:53:25;;;;;;;7.82;3.40;;;18.20;99.90;;;;;;5033247;28;20048;-51
2023/09/29 11:55:52;;;;;;;10.40;3.00;;;18.20;99.90;;;;;;5033778;28;20049;-52
2023/09/29 11:58:19;;;;;;;8.93;3.80;;;18.30;99.90;;;;;;5034218;28;20045;-55
2023/09/29 12:00:47;;;;;;;11.07;3.70;;;18.30;99.90;;;;;;5034563;28;20041;-53
2023/09/29 12:03:17;;;;;;;11.27;3.60;;;18.30;99.90;;;;;;5034399;28;20038;-52
2023/09/29 12:05:45;;;;;;;9.57;3.40;;;18.30;99.90;;;;;;5034331;28;20073;-50
2023/09/29 12:08:12;;;;;;;11.07;3.50;;;18.40;99.90;;;;;;5034365;28;20041;-52
2023/09/29 12:10:39;;;;;;;10.60;3.38;;;18.40;99.90;;;;;;5033659;28;20396;-55
2023/09/29 12:13:07;;;;;;;7.78;3.53;;;18.30;99.90;;;;;;5034411;28;20041;-51
2023/09/29 12:15:34;;;;;;;10.07;3.47;;;18.40;99.90;;;;;;5032767;28;20057;-52
2023/09/29 12:18:01;;;;;;;10.02;3.38;;;18.40;99.90;;;;;;5033305;28;20088;-50
2023/09/29 12:20:28;;;;;;;10.00;3.20;;;18.40;99.90;;;;;;5016550;28;20377;-49
2023/09/29 12:22:57;;;;;;;9.05;3.53;;;18.40;99.90;;;;;;5033170;28;20203;-49
2023/09/29 12:25:24;;;;;;;8.55;3.05;;;18.40;99.90;;;;;;5034043;28;20041;-52
2023/09/29 12:27:51;;;;;;;8.27;3.30;;;18.40;99.50;;;;;;5032714;28;20041;-49
2023/09/29 12:30:21;;;;;;;7.40;2.58;;;18.30;99.90;;;;;;5034076;28;20047;-54
2023/09/29 12:32:48;;;;;;;9.07;2.70;;;18.40;99.90;;;;;;5032924;28;20041;-51
2023/09/29 12:35:15;;;;;;;9.93;3.10;;;18.40;99.90;;;;;;5033981;28;20428;-49
2023/09/29 12:37:42;;;;;;;9.32;3.00;;;18.40;99.90;;;;;;5032943;28;20140;-51
2023/09/29 12:40:09;;;;;;;5.95;2.47;;;18.40;99.90;;;;;;5033847;28;20038;-50
2023/09/29 12:42:36;;;;;;;9.25;3.38;;;18.40;99.80;;;;;;5033603;28;20068;-51
2023/09/29 12:45:03;;;;;;;8.73;3.45;;;18.40;98.50;;;;;;5032604;28;20087;-51
2023/09/29 12:47:30;;;;;;;9.40;3.08;;;18.40;99.40;;;;;;5033469;28;20481;-51